createdAt,value
2023-03-20T00:02:24.556Z,41.72
2023-03-20T00:04:52.684Z,40.00
2023-03-20T00:07:21.385Z,46.10
2023-03-20T00:09:49.553Z,42.78
2023-03-20T00:12:26.371Z,48.40
2023-03-20T00:14:54.772Z,41.92
2023-03-20T00:17:23.033Z,45.17
2023-03-20T00:19:51.597Z,44.30
2023-03-20T00:22:19.262Z,42.88
2023-03-20T00:24:47.572Z,47.95
2023-03-20T00:27:18.209Z,44.15
2023-03-20T00:29:46.151Z,47.53
2023-03-20T00:32:15.337Z,42.50
2023-03-20T00:34:43.506Z,43.33
2023-03-20T00:37:11.947Z,43.53
2023-03-20T00:39:40.801Z,49.78
2023-03-20T00:42:20.500Z,49.78
2023-03-20T00:44:54.184Z,59.47
2023-03-20T00:47:27.230Z,52.22
2023-03-20T00:49:56.103Z,51.30
2023-03-20T00:52:24.582Z,49.63
2023-03-20T00:54:52.891Z,49.22
2023-03-20T00:57:27.952Z,49.58
2023-03-20T01:00:21.286Z,41.05
2023-03-20T01:02:50.073Z,44.40
2023-03-20T01:05:18.093Z,46.42
2023-03-20T01:07:46.845Z,41.47
2023-03-20T01:10:15.061Z,43.40
2023-03-20T01:12:43.792Z,44.75
2023-03-20T01:15:32.871Z,42.95
2023-03-20T01:18:00.844Z,47.70
2023-03-20T01:20:30.432Z,42.17
2023-03-20T01:22:58.501Z,44.20
2023-03-20T01:25:26.251Z,37.90
2023-03-20T01:27:55.162Z,47.03
2023-03-20T01:30:28.827Z,45.17
2023-03-20T01:32:57.806Z,44.53
2023-03-20T01:35:28.175Z,38.63
2023-03-20T01:37:58.815Z,38.80
2023-03-20T01:40:40.757Z,42.97
2023-03-20T01:43:17.348Z,37.88
2023-03-20T01:46:11.344Z,40.38
2023-03-20T01:48:53.604Z,40.38
2023-03-20T01:51:26.540Z,48.83
2023-03-20T01:54:09.719Z,38.10
2023-03-20T01:56:52.533Z,40.22
2023-03-20T01:59:32.112Z,39.72
2023-03-20T02:02:01.134Z,38.83
2023-03-20T02:04:34.975Z,36.92
2023-03-20T02:07:14.242Z,38.90
2023-03-20T02:09:48.177Z,38.00
2023-03-20T02:12:22.067Z,41.55
2023-03-20T02:14:53.214Z,39.42
2023-03-20T02:17:42.798Z,38.88
2023-03-20T02:21:10.820Z,42.58
2023-03-20T02:24:02.425Z,44.70
2023-03-20T02:26:46.273Z,42.95
2023-03-20T02:29:50.839Z,36.95
2023-03-20T02:32:51.056Z,41.60
2023-03-20T02:35:42.877Z,42.58
2023-03-20T02:38:48.301Z,43.08
2023-03-20T02:41:55.679Z,44.20
2023-03-20T02:44:43.949Z,43.20
2023-03-20T02:47:19.835Z,42.38
2023-03-20T02:49:48.134Z,41.30
2023-03-20T02:52:27.750Z,44.05
2023-03-20T02:55:16.110Z,42.28
2023-03-20T02:57:56.574Z,42.17
2023-03-20T03:00:39.422Z,37.53
2023-03-20T03:05:50.902Z,40.47
2023-03-20T03:08:22.542Z,43.67
2023-03-20T03:10:57.595Z,38.58
2023-03-20T03:13:30.155Z,41.60
2023-03-20T03:16:10.439Z,41.85
2023-03-20T03:18:41.698Z,41.95
2023-03-20T03:21:13.560Z,38.88
2023-03-20T03:23:49.481Z,38.63
2023-03-20T03:26:39.922Z,40.75
2023-03-20T03:29:15.637Z,45.70
2023-03-20T03:31:46.147Z,42.00
2023-03-20T03:34:18.105Z,42.17
2023-03-20T03:37:17.837Z,48.22
2023-03-20T03:40:19.822Z,48.95
2023-03-20T03:42:59.636Z,43.20
2023-03-20T03:45:42.210Z,42.80
2023-03-20T03:48:24.383Z,51.53
2023-03-20T03:51:02.336Z,41.90
2023-03-20T03:53:35.042Z,39.55
2023-03-20T03:56:07.134Z,44.72
2023-03-20T03:58:57.988Z,50.37
2023-03-20T04:01:27.557Z,43.33
2023-03-20T04:04:01.232Z,45.22
2023-03-20T04:06:29.483Z,38.90
2023-03-20T04:08:57.445Z,44.28
2023-03-20T04:11:29.903Z,41.65
2023-03-20T04:13:57.978Z,44.88
2023-03-20T04:16:27.202Z,45.40
2023-03-20T04:18:56.580Z,40.85
2023-03-20T04:21:25.447Z,42.55
2023-03-20T04:23:53.866Z,44.28
2023-03-20T04:26:23.615Z,43.10
2023-03-20T04:28:52.201Z,42.75
2023-03-20T04:31:39.309Z,46.58
2023-03-20T04:34:30.270Z,46.17
2023-03-20T04:39:44.044Z,42.10
2023-03-20T04:42:13.207Z,42.60
2023-03-20T04:44:41.261Z,43.13
2023-03-20T04:47:09.326Z,45.63
2023-03-20T04:49:41.146Z,46.85
2023-03-20T04:52:09.294Z,45.25
2023-03-20T04:54:41.074Z,43.20
2023-03-20T04:57:08.786Z,49.15
2023-03-20T04:59:38.529Z,43.10
2023-03-20T05:02:06.769Z,47.75
2023-03-20T05:04:35.013Z,43.42
2023-03-20T05:07:03.372Z,37.88
2023-03-20T05:09:39.481Z,42.55
2023-03-20T05:12:13.298Z,41.95
2023-03-20T05:14:58.130Z,46.25
2023-03-20T05:17:47.320Z,40.08
2023-03-20T05:20:15.453Z,45.47
2023-03-20T05:23:06.619Z,44.28
2023-03-20T05:25:47.322Z,46.53
2023-03-20T05:28:38.647Z,44.25
2023-03-20T05:31:27.041Z,43.53
2023-03-20T05:34:14.881Z,42.97
2023-03-20T05:37:01.067Z,54.50
2023-03-20T05:39:47.546Z,45.13
2023-03-20T05:42:39.220Z,49.53
2023-03-20T05:45:20.499Z,45.58
2023-03-20T05:48:12.822Z,46.33
2023-03-20T05:50:40.982Z,52.65
2023-03-20T05:53:11.836Z,52.45
2023-03-20T05:55:58.285Z,48.72
2023-03-20T05:58:42.385Z,48.35
2023-03-20T06:01:42.392Z,54.58
2023-03-20T06:04:22.889Z,52.10
2023-03-20T06:07:10.940Z,52.42
2023-03-20T06:09:42.761Z,48.75
2023-03-20T06:12:14.277Z,49.80
2023-03-20T06:14:42.468Z,51.80
2023-03-20T06:17:10.879Z,50.55
2023-03-20T06:19:38.720Z,60.50
2023-03-20T06:22:07.415Z,53.38
2023-03-20T06:24:36.096Z,51.05
2023-03-20T06:27:05.018Z,47.20
2023-03-20T06:29:33.158Z,49.00
2023-03-20T06:32:14.791Z,46.22
2023-03-20T06:34:43.141Z,47.85
2023-03-20T06:37:11.617Z,45.97
2023-03-20T06:39:39.580Z,56.85
2023-03-20T06:42:15.047Z,42.67
2023-03-20T06:44:44.961Z,45.85
2023-03-20T06:47:31.526Z,42.60
2023-03-20T06:49:59.576Z,44.78
2023-03-20T06:52:27.714Z,50.78
2023-03-20T06:55:15.791Z,42.95
2023-03-20T06:57:45.143Z,47.97
2023-03-20T07:00:14.539Z,40.88
2023-03-20T07:02:43.197Z,46.33
2023-03-20T07:05:16.030Z,40.03
2023-03-20T07:07:43.869Z,44.80
2023-03-20T07:10:12.613Z,43.92
2023-03-20T07:12:44.691Z,44.22
2023-03-20T07:15:12.741Z,41.92
2023-03-20T07:17:40.568Z,44.60
2023-03-20T07:20:10.115Z,48.17
2023-03-20T07:22:38.310Z,47.13
2023-03-20T07:25:26.165Z,47.83
2023-03-20T07:28:00.578Z,46.42
2023-03-20T07:30:30.007Z,45.50
2023-03-20T07:32:58.069Z,52.88
2023-03-20T07:35:29.790Z,45.05
2023-03-20T07:37:58.336Z,51.70
2023-03-20T07:40:27.168Z,46.53
2023-03-20T07:43:02.982Z,53.80
2023-03-20T07:45:49.880Z,52.22
2023-03-20T07:48:20.596Z,53.25
2023-03-20T07:50:48.141Z,51.55
2023-03-20T07:53:15.806Z,50.72
2023-03-20T07:55:45.253Z,54.53
2023-03-20T07:58:12.840Z,61.08
2023-03-20T08:00:41.306Z,86.05
2023-03-20T08:03:09.791Z,56.13
2023-03-20T08:05:38.918Z,54.25
2023-03-20T08:08:07.105Z,52.05
2023-03-20T08:10:35.948Z,54.15
2023-03-20T08:13:03.539Z,56.55
2023-03-20T08:15:31.777Z,56.78
2023-03-20T08:17:59.896Z,58.35
2023-03-20T08:20:28.371Z,52.05
2023-03-20T08:22:56.609Z,49.55
2023-03-20T08:25:24.286Z,48.60
2023-03-20T08:27:51.875Z,55.33
2023-03-20T08:30:19.961Z,45.42
2023-03-20T08:32:47.590Z,50.60
2023-03-20T08:35:31.543Z,43.20
2023-03-20T08:38:00.454Z,45.58
2023-03-20T08:40:29.061Z,44.38
2023-03-20T08:42:56.715Z,49.00
2023-03-20T08:45:26.363Z,48.60
2023-03-20T08:47:55.088Z,44.40
2023-03-20T08:50:23.599Z,40.95
2023-03-20T08:52:51.212Z,44.88
2023-03-20T08:55:20.038Z,42.67
2023-03-20T08:57:48.754Z,43.45
2023-03-20T09:00:17.131Z,50.03
2023-03-20T09:02:45.605Z,41.13
2023-03-20T09:05:13.730Z,39.53
2023-03-20T09:07:41.749Z,39.65
2023-03-20T09:10:10.836Z,42.47
2023-03-20T09:12:39.808Z,42.05
2023-03-20T09:15:08.378Z,39.35
2023-03-20T09:17:36.998Z,41.17
2023-03-20T09:20:06.461Z,37.05
2023-03-20T09:22:34.107Z,40.17
2023-03-20T09:25:01.859Z,35.20
2023-03-20T09:27:30.067Z,35.75
2023-03-20T09:29:58.184Z,33.80
2023-03-20T09:32:25.844Z,35.75
2023-03-20T09:34:53.624Z,30.83
2023-03-20T09:37:22.149Z,30.98
2023-03-20T09:39:50.255Z,28.90
2023-03-20T09:42:39.575Z,28.23
2023-03-20T09:45:22.748Z,30.10
2023-03-20T09:48:19.960Z,31.70
2023-03-20T09:51:22.506Z,32.00
2023-03-20T09:53:59.292Z,29.17
2023-03-20T09:56:29.977Z,30.23
2023-03-20T09:59:04.853Z,30.40
2023-03-20T10:01:43.585Z,27.15
2023-03-20T10:04:12.597Z,30.85
2023-03-20T10:06:40.491Z,25.25
2023-03-20T10:09:24.844Z,29.38
2023-03-20T10:12:02.672Z,28.60
2023-03-20T10:14:58.989Z,28.25
2023-03-20T10:17:52.106Z,25.77
2023-03-20T10:20:34.445Z,29.03
2023-03-20T10:23:25.686Z,29.45
2023-03-20T10:26:03.215Z,29.77
2023-03-20T10:29:03.710Z,27.80
2023-03-20T10:31:34.616Z,36.75
2023-03-20T10:34:20.267Z,31.00
2023-03-20T10:37:23.396Z,29.85
2023-03-20T10:39:54.966Z,28.70
2023-03-20T10:42:31.046Z,31.15
2023-03-20T10:45:23.784Z,30.85
2023-03-20T10:47:52.821Z,28.70
2023-03-20T10:50:29.024Z,28.23
2023-03-20T10:52:58.331Z,30.60
2023-03-20T10:55:34.869Z,27.60
2023-03-20T10:58:11.904Z,31.23
2023-03-20T11:00:40.776Z,31.80
2023-03-20T11:03:20.565Z,28.95
2023-03-20T11:06:08.830Z,29.40
2023-03-20T11:08:41.971Z,30.25
2023-03-20T11:11:10.870Z,30.08
2023-03-20T11:13:45.074Z,32.85
2023-03-20T11:16:36.801Z,32.13
2023-03-20T11:19:07.718Z,29.58
2023-03-20T11:21:45.465Z,32.00
2023-03-20T11:24:40.101Z,28.88
2023-03-20T11:27:13.305Z,29.38
2023-03-20T11:29:45.258Z,30.35
2023-03-20T11:32:31.496Z,31.00
2023-03-20T11:35:23.022Z,28.17
2023-03-20T11:37:53.623Z,32.35
2023-03-20T11:40:35.052Z,31.45
2023-03-20T11:43:10.597Z,30.27
2023-03-20T11:45:44.952Z,28.90
2023-03-20T11:48:25.518Z,35.05
2023-03-20T11:51:09.692Z,33.75
2023-03-20T11:53:48.265Z,31.77
2023-03-20T11:56:29.018Z,27.13
2023-03-20T11:59:18.520Z,35.25
2023-03-20T12:01:53.467Z,30.50
2023-03-20T12:04:31.603Z,33.45
2023-03-20T12:07:04.919Z,29.92
2023-03-20T12:12:34.003Z,26.15
2023-03-20T12:15:10.552Z,29.23
2023-03-20T12:17:47.553Z,30.98
2023-03-20T12:20:25.348Z,32.90
2023-03-20T12:23:14.749Z,33.72
2023-03-20T12:25:52.527Z,32.03
2023-03-20T12:28:20.692Z,29.25
2023-03-20T12:30:58.956Z,28.13
2023-03-20T12:33:38.560Z,27.38
2023-03-20T12:36:15.192Z,27.02
2023-03-20T12:38:44.824Z,26.45
2023-03-20T12:41:15.030Z,30.75
2023-03-20T12:43:49.109Z,30.48
2023-03-20T12:46:35.783Z,30.88
2023-03-20T12:49:41.810Z,27.83
2023-03-20T12:52:32.676Z,35.05
2023-03-20T12:55:16.289Z,32.35
2023-03-20T13:00:32.211Z,29.27
2023-03-20T13:03:22.298Z,27.42
2023-03-20T13:05:58.780Z,30.25
2023-03-20T13:08:43.243Z,30.83
2023-03-20T13:11:31.884Z,28.90
2023-03-20T13:14:14.850Z,33.72
2023-03-20T13:17:02.135Z,28.13
2023-03-20T13:19:41.820Z,31.48
2023-03-20T13:22:31.114Z,29.55
2023-03-20T13:25:18.898Z,33.75
2023-03-20T13:27:57.474Z,31.05
2023-03-20T13:30:41.048Z,30.88
2023-03-20T13:33:34.833Z,31.75
2023-03-20T13:36:14.818Z,27.38
2023-03-20T13:38:52.813Z,31.90
2023-03-20T13:41:24.904Z,31.85
2023-03-20T13:43:58.769Z,28.60
2023-03-20T13:46:36.415Z,29.60
2023-03-20T13:49:17.064Z,28.88
2023-03-20T13:51:55.385Z,27.83
2023-03-20T13:54:38.616Z,28.75
2023-03-20T13:57:32.568Z,31.77
2023-03-20T14:00:25.351Z,27.70
2023-03-20T14:03:33.569Z,29.42
2023-03-20T14:06:02.123Z,28.80
2023-03-20T14:08:38.232Z,29.45
2023-03-20T14:11:21.570Z,31.00
2023-03-20T14:13:58.458Z,27.63
2023-03-20T14:16:29.224Z,31.27
2023-03-20T14:19:25.534Z,31.67
2023-03-20T14:21:57.571Z,32.35
2023-03-20T14:24:28.827Z,32.10
2023-03-20T14:26:58.845Z,33.90
2023-03-20T14:29:29.910Z,31.75
2023-03-20T14:32:13.383Z,40.53
2023-03-20T14:34:59.482Z,37.13
2023-03-20T14:37:30.327Z,36.30
2023-03-20T14:40:08.336Z,35.35
2023-03-20T14:42:48.197Z,34.60
2023-03-20T14:45:26.207Z,32.95
2023-03-20T14:48:11.907Z,29.75
2023-03-20T14:50:51.122Z,33.40
2023-03-20T14:53:27.531Z,33.00
2023-03-20T14:55:56.259Z,32.30
2023-03-20T14:58:51.491Z,34.85
2023-03-20T15:01:22.189Z,32.33
2023-03-20T15:04:10.341Z,30.00
2023-03-20T15:06:50.731Z,29.95
2023-03-20T15:09:23.323Z,30.17
2023-03-20T15:11:52.793Z,28.80
2023-03-20T15:14:28.436Z,26.80
2023-03-20T15:17:02.317Z,30.27
2023-03-20T15:19:31.993Z,31.45
2023-03-20T15:22:00.798Z,29.17
2023-03-20T15:24:30.850Z,28.75
2023-03-20T15:27:01.139Z,34.63
2023-03-20T15:29:32.681Z,32.22
2023-03-20T15:32:14.129Z,28.88
2023-03-20T15:34:44.188Z,30.05
2023-03-20T15:37:16.588Z,32.65
2023-03-20T15:39:51.902Z,30.58
2023-03-20T15:42:22.586Z,30.83
2023-03-20T15:44:53.486Z,30.08
2023-03-20T15:47:24.935Z,30.00
2023-03-20T15:49:56.087Z,34.35
2023-03-20T15:52:39.885Z,29.70
2023-03-20T15:55:15.041Z,30.83
2023-03-20T15:57:47.396Z,35.47
2023-03-20T16:00:17.083Z,33.63
2023-03-20T16:02:48.535Z,42.67
2023-03-20T16:05:18.433Z,35.33
2023-03-20T16:07:47.453Z,37.42
2023-03-20T16:10:19.819Z,36.00
2023-03-20T16:12:54.641Z,38.00
2023-03-20T16:15:27.762Z,40.95
2023-03-20T16:18:01.484Z,42.78
2023-03-20T16:23:05.617Z,40.28
2023-03-20T16:25:35.868Z,38.78
2023-03-20T16:28:07.317Z,41.63
2023-03-20T16:30:36.921Z,43.78
2023-03-20T16:33:16.587Z,42.60
2023-03-20T16:35:48.725Z,37.95
2023-03-20T16:38:31.868Z,42.05
2023-03-20T16:41:31.157Z,42.60
2023-03-20T16:44:00.482Z,39.70
2023-03-20T16:46:28.709Z,40.25
2023-03-20T16:49:19.799Z,39.90
2023-03-20T16:51:49.105Z,42.83
2023-03-20T16:54:21.499Z,40.75
2023-03-20T16:56:54.222Z,43.05
2023-03-20T16:59:24.944Z,39.67
2023-03-20T17:01:54.394Z,43.75
2023-03-20T17:04:27.943Z,47.05
2023-03-20T17:07:01.540Z,42.97
2023-03-20T17:12:19.567Z,42.95
2023-03-20T17:14:47.622Z,39.40
2023-03-20T17:17:19.622Z,44.38
2023-03-20T17:19:53.195Z,46.97
2023-03-20T17:22:24.156Z,44.92
2023-03-20T17:24:52.841Z,43.25
2023-03-20T17:27:21.415Z,47.08
2023-03-20T17:29:49.918Z,41.25
2023-03-20T17:32:20.153Z,45.00
2023-03-20T17:34:48.272Z,39.05
2023-03-20T17:37:29.870Z,43.33
2023-03-20T17:39:57.974Z,45.03
2023-03-20T17:42:31.457Z,46.03
2023-03-20T17:45:01.439Z,41.65
2023-03-20T17:47:30.424Z,53.28
2023-03-20T17:49:58.897Z,43.20
2023-03-20T17:52:29.367Z,57.17
2023-03-20T17:54:57.694Z,54.67
2023-03-20T17:57:28.424Z,52.58
2023-03-20T17:59:56.582Z,45.90
2023-03-20T18:02:25.078Z,51.58
2023-03-20T18:04:53.506Z,49.13
2023-03-20T18:07:21.376Z,43.00
2023-03-20T18:09:49.659Z,46.33
2023-03-20T18:12:18.979Z,51.42
2023-03-20T18:14:47.330Z,49.33
2023-03-20T18:17:16.596Z,44.83
2023-03-20T18:19:45.009Z,49.33
2023-03-20T18:22:13.274Z,46.00
2023-03-20T18:24:44.883Z,49.88
2023-03-20T18:27:13.705Z,49.10
2023-03-20T18:29:42.211Z,45.60
2023-03-20T18:32:10.503Z,45.65
2023-03-20T18:34:38.632Z,49.53
2023-03-20T18:37:09.270Z,50.20
2023-03-20T18:39:37.334Z,50.38
2023-03-20T18:42:04.966Z,52.40
2023-03-20T18:44:33.419Z,52.45
2023-03-20T18:47:01.631Z,49.45
2023-03-20T18:49:31.127Z,52.65
2023-03-20T18:51:58.853Z,54.13
2023-03-20T18:54:27.242Z,56.22
2023-03-20T18:56:59.943Z,51.78
2023-03-20T18:59:28.446Z,56.65
2023-03-20T19:01:56.428Z,53.90
2023-03-20T19:04:24.547Z,70.70
2023-03-20T19:06:53.092Z,56.05
2023-03-20T19:09:21.899Z,55.90
2023-03-20T19:11:50.543Z,60.88
2023-03-20T19:14:19.367Z,60.97
2023-03-20T19:16:47.863Z,68.45
2023-03-20T19:19:16.667Z,65.53
2023-03-20T19:21:44.376Z,63.45
2023-03-20T19:24:12.461Z,58.80
2023-03-20T19:26:40.685Z,66.85
2023-03-20T19:29:13.868Z,64.00
2023-03-20T19:31:42.634Z,65.78
2023-03-20T19:34:36.766Z,67.68
2023-03-20T19:36:59.858Z,60.88
2023-03-20T19:39:27.601Z,59.25
2023-03-20T19:41:55.930Z,62.15
2023-03-20T19:44:24.102Z,62.85
2023-03-20T19:46:52.949Z,66.07
2023-03-20T19:49:30.098Z,64.03
2023-03-20T19:51:59.891Z,64.00
2023-03-20T19:54:28.695Z,59.90
2023-03-20T19:56:56.330Z,65.18
2023-03-20T19:59:25.756Z,64.10
2023-03-20T20:01:54.784Z,67.10
2023-03-20T20:04:23.500Z,65.38
2023-03-20T20:06:55.534Z,78.47
2023-03-20T20:09:28.747Z,78.05
2023-03-20T20:11:58.150Z,78.80
2023-03-20T20:14:26.065Z,73.63
2023-03-20T20:16:55.592Z,73.60
2023-03-20T20:19:23.306Z,72.18
2023-03-20T20:22:19.695Z,71.00
2023-03-20T20:24:41.090Z,82.18
2023-03-20T20:27:18.564Z,75.22
2023-03-20T20:29:49.400Z,82.15
2023-03-20T20:32:19.331Z,84.70
2023-03-20T20:40:27.948Z,64.95
2023-03-20T20:43:01.397Z,76.80
2023-03-20T20:45:34.871Z,64.63
2023-03-20T20:48:06.574Z,71.78
2023-03-20T20:50:39.357Z,67.00
2023-03-20T20:53:08.352Z,71.13
2023-03-20T20:55:36.637Z,67.25
2023-03-20T20:58:05.855Z,64.65
2023-03-20T21:00:49.433Z,65.05
2023-03-20T21:03:20.221Z,62.28
2023-03-20T21:05:48.312Z,66.63
2023-03-20T21:08:18.638Z,65.63
2023-03-20T21:10:47.161Z,62.13
2023-03-20T21:13:15.999Z,71.75
2023-03-20T21:15:45.769Z,67.32
2023-03-20T21:18:14.708Z,72.55
2023-03-20T21:20:42.861Z,65.45
2023-03-20T21:23:11.359Z,69.18
2023-03-20T21:25:41.395Z,71.90
2023-03-20T21:28:11.559Z,66.18
2023-03-20T21:30:56.132Z,67.07
2023-03-20T21:33:35.968Z,63.47
2023-03-20T21:36:04.822Z,69.63
2023-03-20T21:39:14.903Z,73.82
2023-03-20T21:41:21.631Z,69.00
2023-03-20T21:43:50.801Z,63.55
2023-03-20T21:46:58.787Z,65.13
2023-03-20T22:03:29.012Z,70.40
2023-03-20T22:07:13.494Z,69.53
2023-03-20T22:09:45.666Z,71.78
2023-03-20T22:12:48.025Z,71.07
2023-03-20T22:17:59.669Z,70.72
2023-03-20T22:21:03.906Z,68.80
2023-03-20T22:29:32.558Z,67.32
2023-03-20T22:35:23.002Z,72.03
2023-03-20T22:38:00.514Z,68.95
2023-03-20T22:40:50.461Z,76.32
2023-03-20T22:43:07.066Z,73.35
2023-03-20T22:45:42.521Z,69.45
2023-03-20T22:48:15.626Z,75.43
2023-03-20T22:50:43.787Z,71.60
2023-03-20T22:53:11.410Z,75.93
2023-03-20T22:55:41.627Z,75.53
2023-03-20T22:58:12.230Z,76.30
2023-03-20T23:00:41.636Z,74.75
2023-03-20T23:03:22.352Z,78.25
2023-03-20T23:06:25.454Z,79.72
2023-03-20T23:08:58.338Z,84.45
2023-03-20T23:11:28.057Z,75.38
2023-03-20T23:13:56.550Z,79.05
2023-03-20T23:16:25.313Z,74.50
2023-03-20T23:18:53.832Z,76.78
2023-03-20T23:21:21.887Z,70.65
2023-03-20T23:23:49.632Z,77.20
2023-03-20T23:26:22.563Z,73.93
2023-03-20T23:28:53.318Z,77.75
2023-03-20T23:31:23.897Z,75.20
2023-03-20T23:33:55.562Z,75.75
2023-03-20T23:36:35.834Z,76.80
2023-03-20T23:39:08.230Z,84.95
2023-03-20T23:42:04.608Z,82.63
2023-03-20T23:44:25.929Z,80.40
2023-03-20T23:46:55.636Z,81.35
2023-03-20T23:49:24.063Z,86.20
2023-03-20T23:51:51.750Z,82.45
2023-03-20T23:54:19.526Z,78.82
2023-03-20T23:56:47.872Z,78.15
2023-03-20T23:59:21.586Z,83.25
